createdAt,value
2022-09-26T00:01:44.077Z,99354.56
2022-09-26T00:04:19.241Z,99345.31
2022-09-26T00:06:51.854Z,99341.38
2022-09-26T00:09:20.469Z,99337.28
2022-09-26T00:11:49.227Z,99336.84
2022-09-26T00:14:20.810Z,99331.91
2022-09-26T00:16:51.530Z,99321.00
2022-09-26T00:19:20.630Z,99312.34
2022-09-26T00:21:49.776Z,99315.41
2022-09-26T00:24:18.586Z,99325.22
2022-09-26T00:26:47.143Z,99322.94
2022-09-26T00:29:15.795Z,99318.00
2022-09-26T00:31:46.144Z,99319.81
2022-09-26T00:34:18.357Z,99328.72
2022-09-26T00:36:47.011Z,99322.41
2022-09-26T00:39:17.092Z,99318.81
2022-09-26T00:41:46.175Z,99315.31
2022-09-26T00:44:44.269Z,99313.25
2022-09-26T00:47:27.815Z,99318.69
2022-09-26T00:50:02.227Z,99306.56
2022-09-26T00:52:35.949Z,99311.25
2022-09-26T00:55:06.569Z,99313.28
2022-09-26T00:57:39.350Z,99304.50
2022-09-26T01:00:12.201Z,99302.41
2022-09-26T01:02:41.208Z,99302.41
2022-09-26T01:05:14.525Z,99302.59
2022-09-26T01:07:43.257Z,99302.97
2022-09-26T01:10:12.352Z,99289.03
2022-09-26T01:12:42.485Z,99290.44
2022-09-26T01:15:13.291Z,99289.16
2022-09-26T01:17:44.453Z,99290.34
2022-09-26T01:20:36.565Z,99289.09
2022-09-26T01:23:42.195Z,99295.00
2022-09-26T01:26:34.574Z,99286.09
2022-09-26T01:29:40.934Z,99286.47
2022-09-26T01:32:39.169Z,99279.06
2022-09-26T01:35:17.891Z,99274.28
2022-09-26T01:37:56.786Z,99272.84
2022-09-26T01:40:33.581Z,99280.34
2022-09-26T01:43:12.563Z,99273.97
2022-09-26T01:45:50.524Z,99264.91
2022-09-26T01:48:26.641Z,99261.44
2022-09-26T01:51:00.168Z,99267.28
2022-09-26T01:53:34.477Z,99249.44
2022-09-26T01:56:06.294Z,99264.09
2022-09-26T01:58:38.324Z,99261.81
2022-09-26T02:01:11.765Z,99252.78
2022-09-26T02:03:46.983Z,99259.25
2022-09-26T02:06:20.027Z,99267.44
2022-09-26T02:08:53.370Z,99260.00
2022-09-26T02:11:22.341Z,99257.03
2022-09-26T02:13:53.343Z,99265.75
2022-09-26T02:16:25.505Z,99254.41
2022-09-26T02:19:01.447Z,99260.91
2022-09-26T02:21:30.182Z,99259.97
2022-09-26T02:23:58.900Z,99244.41
2022-09-26T02:26:27.425Z,99247.88
2022-09-26T02:28:55.863Z,99250.91
2022-09-26T02:31:27.897Z,99242.59
2022-09-26T02:33:58.754Z,99248.16
2022-09-26T02:36:27.162Z,99253.38
2022-09-26T02:38:55.593Z,99256.09
2022-09-26T02:41:32.219Z,99256.47
2022-09-26T02:44:27.389Z,99229.38
2022-09-26T02:47:12.010Z,99240.63
2022-09-26T02:50:08.574Z,99238.06
2022-09-26T02:52:51.812Z,99235.56
2022-09-26T02:55:23.401Z,99240.59
2022-09-26T02:58:04.141Z,99241.59
2022-09-26T03:00:46.556Z,99240.50
2022-09-26T03:03:21.583Z,99236.28
2022-09-26T03:05:55.027Z,99234.13
2022-09-26T03:08:27.399Z,99240.53
2022-09-26T03:11:00.443Z,99239.53
2022-09-26T03:13:34.392Z,99233.22
2022-09-26T03:16:05.032Z,99239.16
2022-09-26T03:18:38.726Z,99231.22
2022-09-26T03:21:08.953Z,99237.19
2022-09-26T03:23:37.612Z,99230.25
2022-09-26T03:26:10.701Z,99226.59
2022-09-26T03:28:39.593Z,99219.97
2022-09-26T03:31:08.085Z,99212.38
2022-09-26T03:33:36.813Z,99219.16
2022-09-26T03:36:09.716Z,99222.97
2022-09-26T03:38:38.436Z,99220.31
2022-09-26T03:41:07.707Z,99214.38
2022-09-26T03:43:36.761Z,99212.91
2022-09-26T03:46:06.473Z,99207.78
2022-09-26T03:48:35.781Z,99214.09
2022-09-26T03:51:04.800Z,99213.28
2022-09-26T03:53:40.013Z,99214.09
2022-09-26T03:56:10.382Z,99202.03
2022-09-26T03:58:39.087Z,99209.13
2022-09-26T04:01:09.530Z,99204.56
2022-09-26T04:03:40.033Z,99205.16
2022-09-26T04:06:10.150Z,99198.34
2022-09-26T04:08:41.581Z,99196.38
2022-09-26T04:11:11.949Z,99191.91
2022-09-26T04:13:51.239Z,99195.38
2022-09-26T04:16:21.542Z,99193.72
2022-09-26T04:18:50.598Z,99184.97
2022-09-26T04:21:19.082Z,99181.78
2022-09-26T04:23:49.824Z,99184.13
2022-09-26T04:26:23.398Z,99188.06
2022-09-26T04:28:55.623Z,99170.34
2022-09-26T04:31:25.022Z,99183.53
2022-09-26T04:33:55.113Z,99166.34
2022-09-26T04:36:24.085Z,99170.63
2022-09-26T04:38:54.043Z,99161.03
2022-09-26T04:41:23.486Z,99162.84
2022-09-26T04:43:52.776Z,99171.81
2022-09-26T04:46:28.270Z,99173.00
2022-09-26T04:49:01.341Z,99169.06
2022-09-26T04:51:31.401Z,99164.25
2022-09-26T04:54:07.477Z,99170.88
2022-09-26T04:56:36.195Z,99164.25
2022-09-26T04:59:04.740Z,99166.25
2022-09-26T05:01:33.342Z,99163.25
2022-09-26T05:04:02.041Z,99167.53
2022-09-26T05:06:30.608Z,99164.25
2022-09-26T05:09:00.829Z,99172.19
2022-09-26T05:11:29.517Z,99162.25
2022-09-26T05:13:58.028Z,99170.03
2022-09-26T05:16:28.560Z,99160.28
2022-09-26T05:18:57.357Z,99159.91
2022-09-26T05:21:26.050Z,99162.22
2022-09-26T05:24:11.716Z,99169.81
2022-09-26T05:26:45.629Z,99174.75
2022-09-26T05:29:14.251Z,99171.09
2022-09-26T05:31:43.720Z,99182.97
2022-09-26T05:34:19.227Z,99175.69
2022-09-26T05:36:48.969Z,99178.97
2022-09-26T05:39:36.769Z,99177.97
2022-09-26T05:42:10.313Z,99174.97
2022-09-26T05:44:39.316Z,99174.16
2022-09-26T05:47:07.875Z,99170.94
2022-09-26T05:49:36.386Z,99172.59
2022-09-26T05:52:05.426Z,99175.25
2022-09-26T05:54:33.898Z,99169.78
2022-09-26T05:57:02.483Z,99174.22
2022-09-26T05:59:32.666Z,99174.22
2022-09-26T06:02:01.335Z,99161.53
2022-09-26T06:04:29.944Z,99179.38
2022-09-26T06:06:58.440Z,99182.69
2022-09-26T06:09:26.943Z,99177.38
2022-09-26T06:11:55.423Z,99183.31
2022-09-26T06:14:25.660Z,99179.31
2022-09-26T06:16:55.676Z,99171.22
2022-09-26T06:19:24.269Z,99178.94
2022-09-26T06:21:52.932Z,99182.22
2022-09-26T06:24:21.516Z,99170.44
2022-09-26T06:26:50.024Z,99178.22
2022-09-26T06:29:18.918Z,99184.34
2022-09-26T06:31:48.008Z,99179.69
2022-09-26T06:34:18.133Z,99183.16
2022-09-26T06:36:47.161Z,99186.94
2022-09-26T06:39:16.231Z,99181.44
2022-09-26T06:41:45.618Z,99178.59
2022-09-26T06:44:14.673Z,99184.19
2022-09-26T06:46:43.486Z,99176.03
2022-09-26T06:49:12.126Z,99176.03
2022-09-26T06:51:42.152Z,99176.50
2022-09-26T06:54:10.624Z,99177.16
2022-09-26T06:56:39.007Z,99179.44
2022-09-26T06:59:07.793Z,99192.50
2022-09-26T07:01:36.431Z,99184.75
2022-09-26T07:04:05.541Z,99188.03
2022-09-26T07:06:34.030Z,99195.00
2022-09-26T07:09:07.571Z,99186.38
2022-09-26T07:12:12.444Z,99195.44
2022-09-26T07:14:29.311Z,99184.00
2022-09-26T07:16:57.852Z,99194.06
2022-09-26T07:19:26.398Z,99192.88
2022-09-26T07:21:55.410Z,99200.47
2022-09-26T07:24:27.480Z,99194.44
2022-09-26T07:26:56.057Z,99199.38
2022-09-26T07:29:24.745Z,99200.47
2022-09-26T07:31:53.311Z,99184.38
2022-09-26T07:34:25.312Z,99179.69
2022-09-26T07:36:54.411Z,99174.28
2022-09-26T07:39:24.626Z,99180.50
2022-09-26T07:41:53.403Z,99172.00
2022-09-26T07:47:27.555Z,99176.13
2022-09-26T07:50:14.881Z,99173.53
2022-09-26T07:52:44.508Z,99171.50
2022-09-26T07:55:16.419Z,99170.31
2022-09-26T07:57:47.288Z,99178.72
2022-09-26T08:00:17.496Z,99174.59
2022-09-26T08:02:47.195Z,99165.16
2022-09-26T08:05:20.434Z,99163.53
2022-09-26T08:07:49.611Z,99170.09
2022-09-26T08:10:22.302Z,99181.00
2022-09-26T08:12:51.611Z,99179.72
2022-09-26T08:15:20.293Z,99181.56
2022-09-26T08:17:48.757Z,99184.09
2022-09-26T08:20:17.410Z,99180.88
2022-09-26T08:22:45.898Z,99177.56
2022-09-26T08:25:14.528Z,99180.09
2022-09-26T08:27:45.265Z,99180.72
2022-09-26T08:30:13.970Z,99180.34
2022-09-26T08:32:42.746Z,99180.63
2022-09-26T08:35:15.239Z,99165.03
2022-09-26T08:37:43.722Z,99173.78
2022-09-26T08:40:12.995Z,99177.88
2022-09-26T08:42:57.780Z,99173.41
2022-09-26T08:45:55.222Z,99165.22
2022-09-26T08:48:44.693Z,99158.69
2022-09-26T08:51:29.174Z,99163.41
2022-09-26T08:54:06.213Z,99154.00
2022-09-26T08:56:40.820Z,99163.72
2022-09-26T08:59:19.993Z,99170.69
2022-09-26T09:01:52.018Z,99170.94
2022-09-26T09:04:25.921Z,99167.06
2022-09-26T09:07:00.205Z,99167.50
2022-09-26T09:09:28.756Z,99171.06
2022-09-26T09:12:10.135Z,99162.28
2022-09-26T09:15:13.716Z,99167.84
2022-09-26T09:17:49.778Z,99162.13
2022-09-26T09:20:22.903Z,99171.38
2022-09-26T09:23:24.005Z,99167.50
2022-09-26T09:29:39.311Z,99165.66
2022-09-26T09:32:14.121Z,99166.91
2022-09-26T09:34:44.632Z,99167.31
2022-09-26T09:37:17.205Z,99167.53
2022-09-26T09:39:49.056Z,99169.81
2022-09-26T09:42:24.528Z,99163.06
2022-09-26T09:44:57.271Z,99166.97
2022-09-26T09:47:30.454Z,99167.22
2022-09-26T09:50:00.616Z,99171.13
2022-09-26T09:52:51.425Z,99168.47
2022-09-26T09:55:34.319Z,99153.53
2022-09-26T09:58:32.188Z,99158.06
2022-09-26T10:01:10.093Z,99166.72
2022-09-26T10:03:49.479Z,99167.53
2022-09-26T10:06:45.861Z,99165.50
2022-09-26T10:09:38.561Z,99168.38
2022-09-26T10:12:13.711Z,99163.69
2022-09-26T10:14:47.825Z,99175.38
2022-09-26T10:17:23.215Z,99168.00
2022-09-26T10:19:53.663Z,99174.56
2022-09-26T10:22:29.630Z,99172.94
2022-09-26T10:25:04.145Z,99175.63
2022-09-26T10:27:45.237Z,99162.88
2022-09-26T10:30:33.894Z,99172.53
2022-09-26T10:33:03.722Z,99173.09
2022-09-26T10:35:42.817Z,99177.84
2022-09-26T10:38:21.996Z,99174.56
2022-09-26T10:40:55.088Z,99174.16
2022-09-26T10:43:28.819Z,99177.06
2022-09-26T10:46:03.177Z,99173.31
2022-09-26T10:48:47.318Z,99176.59
2022-09-26T10:51:30.378Z,99174.56
2022-09-26T10:54:05.165Z,99179.28
2022-09-26T10:56:40.124Z,99168.00
2022-09-26T10:59:11.922Z,99171.25
2022-09-26T11:01:44.639Z,99171.63
2022-09-26T11:04:37.500Z,99177.75
2022-09-26T11:07:09.691Z,99159.50
2022-09-26T11:09:39.852Z,99171.56
2022-09-26T11:12:29.990Z,99168.91
2022-09-26T11:15:02.215Z,99162.97
2022-09-26T11:17:45.304Z,99165.84
2022-09-26T11:20:25.787Z,99167.09
2022-09-26T11:23:03.948Z,99174.81
2022-09-26T11:25:40.811Z,99176.16
2022-09-26T11:28:14.738Z,99164.47
2022-09-26T11:30:48.497Z,99168.22
2022-09-26T11:33:19.125Z,99174.63
2022-09-26T11:35:59.783Z,99152.69
2022-09-26T11:38:39.746Z,99168.28
2022-09-26T11:41:36.757Z,99177.34
2022-09-26T11:44:43.363Z,99169.31
2022-09-26T11:47:37.342Z,99165.03
2022-09-26T11:50:41.189Z,99161.13
2022-09-26T11:53:26.882Z,99157.97
2022-09-26T11:56:11.995Z,99157.34
2022-09-26T11:58:49.497Z,99144.47
2022-09-26T12:01:27.632Z,99145.50
2022-09-26T12:04:41.396Z,99149.41
2022-09-26T12:07:17.778Z,99151.09
2022-09-26T12:10:01.782Z,99150.31
2022-09-26T12:12:42.648Z,99141.25
2022-09-26T12:15:23.930Z,99137.56
2022-09-26T12:18:06.567Z,99131.84
2022-09-26T12:20:44.670Z,99147.44
2022-09-26T12:23:21.975Z,99146.84
2022-09-26T12:26:00.997Z,99152.19
2022-09-26T12:28:53.226Z,99154.22
2022-09-26T12:31:34.114Z,99149.06
2022-09-26T12:34:38.138Z,99139.16
2022-09-26T12:37:19.266Z,99139.16
2022-09-26T12:40:10.512Z,99129.31
2022-09-26T12:42:57.024Z,99139.56
2022-09-26T12:45:53.029Z,99129.06
2022-09-26T12:48:32.790Z,99130.53
2022-09-26T12:51:20.790Z,99120.34
2022-09-26T12:54:06.319Z,99122.38
2022-09-26T12:56:47.910Z,99120.34
2022-09-26T12:59:38.501Z,99115.00
2022-09-26T13:02:24.556Z,99126.06
2022-09-26T13:05:20.255Z,99119.91
2022-09-26T13:08:02.417Z,99111.91
2022-09-26T13:10:39.751Z,99117.00
2022-09-26T13:13:52.865Z,99109.22
2022-09-26T13:16:31.981Z,99109.81
2022-09-26T13:19:10.446Z,99100.22
2022-09-26T13:21:46.371Z,99105.56
2022-09-26T13:24:20.706Z,99105.94
2022-09-26T13:26:55.521Z,99113.78
2022-09-26T13:29:29.002Z,99104.75
2022-09-26T13:32:07.441Z,99112.56
2022-09-26T13:34:41.893Z,99114.22
2022-09-26T13:37:20.896Z,99115.81
2022-09-26T13:39:54.176Z,99111.72
2022-09-26T13:42:33.207Z,99110.13
2022-09-26T13:45:08.445Z,99101.47
2022-09-26T13:47:43.240Z,99102.53
2022-09-26T13:50:25.196Z,99087.78
2022-09-26T13:53:05.600Z,99097.88
2022-09-26T13:55:34.420Z,99108.97
2022-09-26T13:58:07.344Z,99109.16
2022-09-26T14:00:57.839Z,99095.44
2022-09-26T14:03:44.808Z,99100.19
2022-09-26T14:06:32.769Z,99096.28
2022-09-26T14:09:24.998Z,99096.88
2022-09-26T14:12:19.242Z,99085.19
2022-09-26T14:14:53.735Z,99081.75
2022-09-26T14:18:03.795Z,99073.38
2022-09-26T14:20:40.903Z,99070.06
2022-09-26T14:23:36.320Z,99077.25
2022-09-26T14:26:10.659Z,99068.81
2022-09-26T14:28:40.390Z,99070.84
2022-09-26T14:31:39.358Z,99069.22
2022-09-26T14:34:24.867Z,99063.44
2022-09-26T14:36:55.096Z,99064.25
2022-09-26T14:39:33.913Z,99050.25
2022-09-26T14:42:19.122Z,99060.09
2022-09-26T14:44:54.893Z,99059.22
2022-09-26T14:47:24.989Z,99056.31
2022-09-26T14:49:59.530Z,99057.34
2022-09-26T14:52:28.311Z,99063.34
2022-09-26T14:55:02.737Z,99048.53
2022-09-26T14:57:34.275Z,99047.09
2022-09-26T15:00:04.002Z,99051.41
2022-09-26T15:02:41.565Z,99041.75
2022-09-26T15:05:24.389Z,99046.66
2022-09-26T15:07:54.119Z,99046.78
2022-09-26T15:10:38.251Z,99050.41
2022-09-26T15:13:22.217Z,99048.75
2022-09-26T15:15:58.202Z,99033.31
2022-09-26T15:18:36.359Z,99031.44
2022-09-26T15:21:11.844Z,99039.69
2022-09-26T15:23:49.602Z,99032.56
2022-09-26T15:26:23.524Z,99029.97
2022-09-26T15:28:53.726Z,99029.03
2022-09-26T15:31:25.685Z,99030.44
2022-09-26T15:34:00.567Z,99027.16
2022-09-26T15:36:31.470Z,99028.38
2022-09-26T15:39:00.557Z,99024.69
2022-09-26T15:41:47.935Z,99017.69
2022-09-26T15:44:21.806Z,99021.81
2022-09-26T15:46:52.959Z,99016.47
2022-09-26T15:49:33.315Z,99027.16
2022-09-26T15:52:04.677Z,99002.75
2022-09-26T15:54:41.854Z,99016.06
2022-09-26T15:57:12.079Z,99010.34
2022-09-26T15:59:44.755Z,99018.97
2022-09-26T16:02:23.994Z,99012.78
2022-09-26T16:04:54.970Z,99022.44
2022-09-26T16:07:27.291Z,99028.81
2022-09-26T16:09:57.745Z,99021.84
2022-09-26T16:12:30.012Z,99028.81
2022-09-26T16:15:03.106Z,99022.66
2022-09-26T16:17:36.483Z,99012.44
2022-09-26T16:20:24.533Z,99021.69
2022-09-26T16:23:00.420Z,99013.66
2022-09-26T16:25:35.416Z,99012.44
2022-09-26T16:28:23.559Z,99007.50
2022-09-26T16:31:11.315Z,99001.75
2022-09-26T16:33:41.175Z,99007.53
2022-09-26T16:36:19.401Z,99007.53
2022-09-26T16:38:54.579Z,99001.22
2022-09-26T16:41:56.805Z,99005.75
2022-09-26T16:44:30.330Z,99006.78
2022-09-26T16:47:03.930Z,99017.09
2022-09-26T16:49:48.712Z,99024.91
2022-09-26T16:52:28.452Z,99024.09
2022-09-26T16:54:57.807Z,99019.59
2022-09-26T16:57:29.191Z,99019.41
2022-09-26T17:00:20.669Z,99024.13
2022-09-26T17:02:49.595Z,99025.38
2022-09-26T17:05:20.405Z,99017.16
2022-09-26T17:07:50.916Z,99001.97
2022-09-26T17:10:21.173Z,99010.81
2022-09-26T17:12:53.332Z,99017.38
2022-09-26T17:15:29.654Z,99020.81
2022-09-26T17:17:58.885Z,99023.91
2022-09-26T17:20:27.513Z,99022.84
2022-09-26T17:22:56.118Z,99023.66
2022-09-26T17:25:25.396Z,99026.97
2022-09-26T17:27:59.910Z,99029.41
2022-09-26T17:30:30.224Z,99009.72
2022-09-26T17:33:02.711Z,99015.25
2022-09-26T17:35:35.800Z,99013.38
2022-09-26T17:38:04.608Z,99019.53
2022-09-26T17:40:34.787Z,99013.69
2022-09-26T17:43:03.500Z,99009.94
2022-09-26T17:45:36.846Z,99015.22
2022-09-26T17:48:08.911Z,99013.56
2022-09-26T17:50:40.115Z,99012.38
2022-09-26T17:53:21.185Z,99006.22
2022-09-26T17:55:53.352Z,99006.19
2022-09-26T17:58:22.683Z,99013.56
2022-09-26T18:00:53.731Z,99003.63
2022-09-26T18:03:27.023Z,99012.16
2022-09-26T18:05:56.135Z,99009.28
2022-09-26T18:08:28.374Z,99000.00
2022-09-26T18:10:59.753Z,98996.03
2022-09-26T18:13:31.897Z,99000.63
2022-09-26T18:16:02.478Z,98994.81
2022-09-26T18:18:32.559Z,98998.16
2022-09-26T18:21:04.278Z,98997.53
2022-09-26T18:23:43.444Z,98989.94
2022-09-26T18:26:21.957Z,99001.31
2022-09-26T18:28:50.955Z,98998.28
2022-09-26T18:31:28.424Z,98998.53
2022-09-26T18:33:58.464Z,98998.16
2022-09-26T18:36:30.146Z,99000.19
2022-09-26T18:39:00.415Z,98990.78
2022-09-26T18:41:29.886Z,98987.66
2022-09-26T18:44:03.067Z,98987.41
2022-09-26T18:46:44.871Z,98976.78
2022-09-26T18:49:15.607Z,98979.22
2022-09-26T18:51:46.685Z,98979.34
2022-09-26T18:54:17.647Z,98978.94
2022-09-26T18:57:05.616Z,98978.41
2022-09-26T18:59:36.678Z,98990.69
2022-09-26T19:02:20.940Z,98989.69
2022-09-26T19:04:49.902Z,98991.19
2022-09-26T19:07:21.666Z,98985.84
2022-09-26T19:09:51.763Z,98976.72
2022-09-26T19:12:20.601Z,98969.91
2022-09-26T19:14:49.159Z,98970.81
2022-09-26T19:17:19.479Z,98955.16
2022-09-26T19:19:48.392Z,98969.44
2022-09-26T19:22:22.881Z,98965.50
2022-09-26T19:24:54.038Z,98963.59
2022-09-26T19:27:33.811Z,98962.53
2022-09-26T19:30:05.731Z,98946.97
2022-09-26T19:32:39.271Z,98950.91
2022-09-26T19:35:14.142Z,98952.63
2022-09-26T19:37:42.781Z,98953.47
2022-09-26T19:40:15.471Z,98948.44
2022-09-26T19:42:44.615Z,98943.66
2022-09-26T19:45:14.504Z,98938.63
2022-09-26T19:47:47.386Z,98936.25
2022-09-26T19:50:21.848Z,98946.75
2022-09-26T19:52:53.667Z,98934.94
2022-09-26T19:55:24.893Z,98945.19
2022-09-26T19:58:13.460Z,98947.19
2022-09-26T20:00:43.775Z,98949.31
2022-09-26T20:03:18.812Z,98942.34
2022-09-26T20:05:49.605Z,98947.19
2022-09-26T20:08:19.612Z,98944.53
2022-09-26T20:10:48.460Z,98948.84
2022-09-26T20:13:17.183Z,98949.69
2022-09-26T20:15:46.405Z,98948.03
2022-09-26T20:18:20.908Z,98949.84
2022-09-26T20:20:53.428Z,98949.22
2022-09-26T20:23:24.508Z,98942.63
2022-09-26T20:25:54.222Z,98955.09
2022-09-26T20:28:22.961Z,98945.19
2022-09-26T20:30:55.488Z,98952.34
2022-09-26T20:33:26.885Z,98948.06
2022-09-26T20:36:03.169Z,98943.28
2022-09-26T20:38:35.930Z,98942.47
2022-09-26T20:41:12.895Z,98943.66
2022-09-26T20:43:45.032Z,98946.50
2022-09-26T20:46:14.203Z,98932.16
2022-09-26T20:48:47.332Z,98941.47
2022-09-26T20:51:21.105Z,98938.94
2022-09-26T20:53:49.908Z,98935.63
2022-09-26T20:56:22.026Z,98920.09
2022-09-26T20:58:50.738Z,98932.50
2022-09-26T21:01:21.926Z,98934.09
2022-09-26T21:03:55.392Z,98934.81
2022-09-26T21:06:25.231Z,98932.69
2022-09-26T21:08:53.777Z,98931.69
2022-09-26T21:11:23.067Z,98920.16
2022-09-26T21:13:51.810Z,98920.44
2022-09-26T21:16:22.913Z,98909.00
2022-09-26T21:18:54.128Z,98910.41
2022-09-26T21:21:25.190Z,98909.88
2022-09-26T21:23:55.253Z,98910.50
2022-09-26T21:26:26.041Z,98890.22
2022-09-26T21:28:56.183Z,98903.38
2022-09-26T21:31:27.663Z,98889.22
2022-09-26T21:33:59.735Z,98892.78
2022-09-26T21:36:35.133Z,98898.72
2022-09-26T21:39:04.149Z,98890.78
2022-09-26T21:41:32.793Z,98899.81
2022-09-26T21:44:06.296Z,98901.06
2022-09-26T21:46:34.858Z,98887.25
2022-09-26T21:49:04.899Z,98892.75
2022-09-26T21:51:33.622Z,98894.75
2022-09-26T21:54:06.380Z,98894.13
2022-09-26T21:56:39.097Z,98893.47
2022-09-26T21:59:08.621Z,98879.22
2022-09-26T22:01:37.107Z,98892.81
2022-09-26T22:04:07.226Z,98883.25
2022-09-26T22:06:35.696Z,98865.88
2022-09-26T22:09:04.457Z,98877.59
2022-09-26T22:11:33.074Z,98869.66
2022-09-26T22:14:01.483Z,98865.34
2022-09-26T22:16:30.050Z,98858.50
2022-09-26T22:18:58.865Z,98852.84
2022-09-26T22:21:29.028Z,98857.50
2022-09-26T22:23:57.607Z,98854.22
2022-09-26T22:26:26.107Z,98858.16
2022-09-26T22:28:54.723Z,98833.41
2022-09-26T22:31:23.251Z,98847.28
2022-09-26T22:33:51.809Z,98843.06
2022-09-26T22:36:20.216Z,98835.78
2022-09-26T22:38:50.284Z,98846.84
2022-09-26T22:41:19.281Z,98839.06
2022-09-26T22:43:49.401Z,98832.06
2022-09-26T22:46:18.052Z,98826.34
2022-09-26T22:48:48.274Z,98823.78
2022-09-26T22:51:18.376Z,98824.47
2022-09-26T22:53:46.998Z,98815.97
2022-09-26T22:56:18.271Z,98804.00
2022-09-26T22:58:48.844Z,98804.22
2022-09-26T23:01:19.368Z,98808.66
2022-09-26T23:03:48.027Z,98795.16
2022-09-26T23:06:17.586Z,98783.66
2022-09-26T23:08:46.116Z,98788.59
2022-09-26T23:11:15.269Z,98787.41
2022-09-26T23:13:45.819Z,98786.22
2022-09-26T23:16:16.409Z,98783.56
2022-09-26T23:18:45.642Z,98784.22
2022-09-26T23:21:15.562Z,98774.44
2022-09-26T23:23:45.582Z,98774.88
2022-09-26T23:26:17.411Z,98786.94
2022-09-26T23:28:47.363Z,98771.88
2022-09-26T23:31:15.872Z,98769.69
2022-09-26T23:33:45.157Z,98764.38
2022-09-26T23:36:14.416Z,98765.81
2022-09-26T23:38:43.422Z,98757.88
2022-09-26T23:41:13.765Z,98765.66
2022-09-26T23:43:42.958Z,98754.59
2022-09-26T23:46:13.221Z,98750.31
2022-09-26T23:48:41.857Z,98763.19
2022-09-26T23:51:11.496Z,98739.06
2022-09-26T23:53:39.953Z,98755.88
2022-09-26T23:56:11.003Z,98749.94
2022-09-26T23:58:40.825Z,98750.94
